Darstellungsparameter: Aktuell verwendete Einstellungen:
Skalierung der Graphiken ... ?
xyx+y,   Skalierungsfaktor:      Skalierung: Modus: x, Faktor: 1
Darstellungszeitraum ... ?
Vom - - bis: - -   Zeitraum: 23.03.2016 - 23.03.2016
Min/Max/Avg-Anzeige ... ?
Zeige MMA aktuell
Zeige MMA Monat
Zeige MMA alles
Zeige --A aktuell
Zeige --A Monat
Zeige --A alles
Keine MMA-Anzeige
MMA:
Minimum Maximum Average (ber die Originaldaten)
MMA-Basis: 14.04.2020 - 16.05.2020
Quicknavigation für Darstellung... ?
Tage:      1T, 2T, 3T, 5T -1T -2T -3T -5T +1T +2T +3T +5T
Wochen: 1W, 2W, 3W -1W -2W -3W +1W +2W +3W
Monate: 1M, 3M, 6M -1M -3M -6M +1M +3M +6M
Jahre:    1J, 3J, 5J, 10J -1J -3J -5J -10J +1J +3J +5J +10J
Nutze für die Darstellung ... ?
Originaldaten oder Mittelwerte auf ...
Stundenbasis Tagesbasis Wochenbasis
Monatsbasis Jahresbasis      Datenbasis: Original-Daten
Darstellen als:
Statistik (Auto) Statistik J:M      Darstellung:
Zur Graphik,    zurück zur Übersicht aller Sensoren.
 
Tabellarische Datenbersicht: ?
 
Sensor: Nr:Datum:Temp:Abs-Feuchte:Windchill:Wind:
Aussen-T/F 1 23-03-2016 00:00:00 7.9 C 7.23 g/m*3 7.9 C 4.8 km/h
2 23-03-2016 00:05:00 7.9 C 7.23 g/m*3 6.94 C 6.4 km/h
3 23-03-2016 00:10:00 7.9 C 7.23 g/m*3 6.94 C 6.4 km/h
4 23-03-2016 00:15:00 7.9 C 7.23 g/m*3 7.9 C 3.2 km/h
5 23-03-2016 00:20:00 7.8 C 7.18 g/m*3 6.83 C 6.4 km/h
6 23-03-2016 00:25:00 7.8 C 7.18 g/m*3 7.8 C 3.2 km/h
7 23-03-2016 00:30:00 7.8 C 7.18 g/m*3 7.8 C 4.8 km/h
8 23-03-2016 00:35:00 7.8 C 7.18 g/m*3 7.8 C 3.2 km/h
9 23-03-2016 00:40:00 7.8 C 7.18 g/m*3 7.8 C 3.2 km/h
10 23-03-2016 00:45:00 7.8 C 7.18 g/m*3 7.8 C 1.6 km/h
11 23-03-2016 00:50:00 7.8 C 7.18 g/m*3 7.8 C 0 km/h
12 23-03-2016 00:55:00 7.8 C 7.18 g/m*3 7.8 C 3.2 km/h
13 23-03-2016 01:00:00 7.8 C 7.18 g/m*3 7.8 C 3.2 km/h
14 23-03-2016 01:05:00 7.8 C 7.18 g/m*3 7.8 C 1.6 km/h
15 23-03-2016 01:10:00 7.7 C 7.14 g/m*3 7.7 C 4.8 km/h
16 23-03-2016 01:15:00 7.7 C 7.14 g/m*3 6.71 C 6.4 km/h
17 23-03-2016 01:20:00 7.7 C 7.14 g/m*3 5.94 C 9.7 km/h
18 23-03-2016 01:25:00 7.7 C 7.14 g/m*3 6.71 C 6.4 km/h
19 23-03-2016 01:30:00 7.7 C 7.14 g/m*3 6.28 C 8.1 km/h
20 23-03-2016 01:35:00 7.7 C 7.14 g/m*3 7.7 C 3.2 km/h
21 23-03-2016 01:40:00 7.7 C 7.14 g/m*3 6.71 C 6.4 km/h
22 23-03-2016 01:45:00 7.7 C 7.14 g/m*3 7.7 C 4.8 km/h
23 23-03-2016 01:50:00 7.7 C 7.14 g/m*3 7.7 C 4.8 km/h
24 23-03-2016 01:55:00 7.7 C 7.22 g/m*3 6.71 C 6.4 km/h
25 23-03-2016 02:00:00 7.7 C 7.22 g/m*3 6.71 C 6.4 km/h
Sensor: Nr:Datum:Temp:Abs-Feuchte:Windchill:Wind:
Aussen-T/F 26 23-03-2016 02:05:00 7.7 C 7.22 g/m*3 5.94 C 9.7 km/h
27 23-03-2016 02:10:00 7.6 C 7.17 g/m*3 6.6 C 6.4 km/h
28 23-03-2016 02:15:00 7.6 C 7.17 g/m*3 7.6 C 3.2 km/h
29 23-03-2016 02:20:00 7.6 C 7.17 g/m*3 7.6 C 0 km/h
30 23-03-2016 02:25:00 7.6 C 7.25 g/m*3 6.6 C 6.4 km/h
31 23-03-2016 02:30:00 7.6 C 7.25 g/m*3 7.6 C 3.2 km/h
32 23-03-2016 02:35:00 7.5 C 7.2 g/m*3 7.5 C 4.8 km/h
33 23-03-2016 02:40:00 7.5 C 7.2 g/m*3 5.14 C 12.9 km/h
34 23-03-2016 02:45:00 7.4 C 7.16 g/m*3 6.37 C 6.4 km/h
35 23-03-2016 02:50:00 7.4 C 7.16 g/m*3 5.58 C 9.7 km/h
36 23-03-2016 02:55:00 7.3 C 7.19 g/m*3 5.81 C 8.1 km/h
37 23-03-2016 03:00:00 7.3 C 7.19 g/m*3 7.3 C 4.8 km/h
38 23-03-2016 03:05:00 7.3 C 7.19 g/m*3 5.16 C 11.3 km/h
39 23-03-2016 03:10:00 7.3 C 7.19 g/m*3 5.81 C 8.1 km/h
40 23-03-2016 03:15:00 7.2 C 7.14 g/m*3 6.13 C 6.4 km/h
41 23-03-2016 03:20:00 7.2 C 7.14 g/m*3 6.13 C 6.4 km/h
42 23-03-2016 03:25:00 7.2 C 7.22 g/m*3 5.35 C 9.7 km/h
43 23-03-2016 03:30:00 7.1 C 7.18 g/m*3 6.02 C 6.4 km/h
44 23-03-2016 03:35:00 7.1 C 7.18 g/m*3 6.02 C 6.4 km/h
45 23-03-2016 03:40:00 7.1 C 7.18 g/m*3 5.58 C 8.1 km/h
46 23-03-2016 03:45:00 7 C 7.13 g/m*3 5.11 C 9.7 km/h
47 23-03-2016 03:50:00 6.9 C 7.08 g/m*3 4.41 C 12.9 km/h
48 23-03-2016 03:55:00 6.9 C 7.08 g/m*3 5.34 C 8.1 km/h
49 23-03-2016 04:00:00 6.9 C 7.16 g/m*3 4.99 C 9.7 km/h
50 23-03-2016 04:05:00 6.8 C 7.11 g/m*3 4.29 C 12.9 km/h
Sensor: Nr:Datum:Temp:Abs-Feuchte:Windchill:Wind:
Aussen-T/F 51 23-03-2016 04:10:00 6.8 C 7.11 g/m*3 6.8 C 3.2 km/h
52 23-03-2016 04:15:00 6.8 C 7.11 g/m*3 4.87 C 9.7 km/h
53 23-03-2016 04:20:00 6.8 C 7.11 g/m*3 6.8 C 4.8 km/h
54 23-03-2016 04:25:00 6.8 C 7.11 g/m*3 5.67 C 6.4 km/h
55 23-03-2016 04:30:00 6.8 C 7.11 g/m*3 5.22 C 8.1 km/h
56 23-03-2016 04:35:00 6.7 C 7.07 g/m*3 5.56 C 6.4 km/h
57 23-03-2016 04:40:00 6.7 C 7.07 g/m*3 5.56 C 6.4 km/h
58 23-03-2016 04:45:00 6.7 C 7.14 g/m*3 6.7 C 3.2 km/h
59 23-03-2016 04:50:00 6.7 C 7.14 g/m*3 5.56 C 6.4 km/h
60 23-03-2016 04:55:00 6.7 C 7.14 g/m*3 4.75 C 9.7 km/h
61 23-03-2016 05:00:00 6.7 C 7.14 g/m*3 6.7 C 4.8 km/h
62 23-03-2016 05:05:00 6.7 C 7.14 g/m*3 6.7 C 3.2 km/h
63 23-03-2016 05:10:00 6.7 C 7.14 g/m*3 4.44 C 11.3 km/h
64 23-03-2016 05:15:00 6.7 C 7.14 g/m*3 6.7 C 1.6 km/h
65 23-03-2016 05:20:00 6.7 C 7.14 g/m*3 6.7 C 3.2 km/h
66 23-03-2016 05:25:00 6.7 C 7.14 g/m*3 5.56 C 6.4 km/h
67 23-03-2016 05:30:00 6.6 C 7.1 g/m*3 6.6 C 1.6 km/h
68 23-03-2016 05:35:00 6.6 C 7.02 g/m*3 6.6 C 3.2 km/h
69 23-03-2016 05:40:00 6.6 C 7.02 g/m*3 6.6 C 0 km/h
70 23-03-2016 05:45:00 6.6 C 7.1 g/m*3 6.6 C 1.6 km/h
71 23-03-2016 05:50:00 6.6 C 7.02 g/m*3 6.6 C 0 km/h
72 23-03-2016 05:55:00 6.6 C 7.02 g/m*3 6.6 C 4.8 km/h
73 23-03-2016 06:00:00 6.6 C 7.02 g/m*3 6.6 C 3.2 km/h
74 23-03-2016 06:05:00 6.6 C 7.02 g/m*3 6.6 C 4.8 km/h
75 23-03-2016 06:10:00 6.6 C 7.02 g/m*3 6.6 C 4.8 km/h
Sensor: Nr:Datum:Temp:Abs-Feuchte:Windchill:Wind:
Aussen-T/F 76 23-03-2016 06:15:00 6.6 C 7.02 g/m*3 5.44 C 6.4 km/h
77 23-03-2016 06:20:00 6.6 C 7.02 g/m*3 6.6 C 1.6 km/h
78 23-03-2016 06:25:00 6.6 C 7.02 g/m*3 5.44 C 6.4 km/h
79 23-03-2016 06:30:00 6.6 C 7.02 g/m*3 5.44 C 6.4 km/h
80 23-03-2016 06:35:00 6.6 C 7.02 g/m*3 6.6 C 4.8 km/h
81 23-03-2016 06:40:00 6.6 C 7.02 g/m*3 6.6 C 1.6 km/h
82 23-03-2016 06:45:00 6.6 C 7.02 g/m*3 6.6 C 3.2 km/h
83 23-03-2016 06:50:00 6.6 C 7.02 g/m*3 6.6 C 4.8 km/h
84 23-03-2016 06:55:00 6.6 C 7.02 g/m*3 6.6 C 4.8 km/h
85 23-03-2016 07:00:00 6.6 C 7.02 g/m*3 6.6 C 1.6 km/h
86 23-03-2016 07:05:00 6.6 C 7.02 g/m*3 6.6 C 3.2 km/h
87 23-03-2016 07:10:00 6.6 C 6.95 g/m*3 6.6 C 3.2 km/h
88 23-03-2016 07:15:00 6.6 C 6.95 g/m*3 6.6 C 0 km/h
89 23-03-2016 07:20:00 6.6 C 6.95 g/m*3 6.6 C 0 km/h
90 23-03-2016 07:25:00 6.6 C 6.95 g/m*3 6.6 C 1.6 km/h
91 23-03-2016 07:30:00 6.6 C 6.95 g/m*3 6.6 C 0 km/h
92 23-03-2016 07:35:00 6.6 C 7.02 g/m*3 6.6 C 0 km/h
93 23-03-2016 07:40:00 6.6 C 7.02 g/m*3 6.6 C 3.2 km/h
94 23-03-2016 07:45:00 6.6 C 6.95 g/m*3 6.6 C 0 km/h
95 23-03-2016 07:50:00 6.6 C 6.95 g/m*3 6.6 C 4.8 km/h
96 23-03-2016 07:55:00 6.6 C 6.95 g/m*3 6.6 C 4.8 km/h
97 23-03-2016 08:00:00 6.6 C 6.95 g/m*3 5.44 C 6.4 km/h
98 23-03-2016 08:05:00 6.7 C 6.99 g/m*3 6.7 C 4.8 km/h
99 23-03-2016 08:10:00 6.7 C 6.99 g/m*3 6.7 C 4.8 km/h
100 23-03-2016 08:15:00 6.7 C 6.99 g/m*3 6.7 C 3.2 km/h
Sensor: Nr:Datum:Temp:Abs-Feuchte:Windchill:Wind:
Aussen-T/F 101 23-03-2016 08:20:00 6.7 C 6.99 g/m*3 6.7 C 4.8 km/h
102 23-03-2016 08:25:00 6.7 C 6.99 g/m*3 6.7 C 4.8 km/h
103 23-03-2016 08:30:00 6.8 C 7.04 g/m*3 6.8 C 3.2 km/h
104 23-03-2016 08:35:00 6.8 C 6.96 g/m*3 6.8 C 1.6 km/h
105 23-03-2016 08:40:00 6.8 C 7.04 g/m*3 6.8 C 1.6 km/h
106 23-03-2016 08:45:00 6.8 C 6.96 g/m*3 6.8 C 3.2 km/h
107 23-03-2016 08:50:00 6.8 C 6.96 g/m*3 6.8 C 0 km/h
108 23-03-2016 08:55:00 6.8 C 6.96 g/m*3 5.67 C 6.4 km/h
109 23-03-2016 09:00:00 6.8 C 6.96 g/m*3 5.67 C 6.4 km/h
110 23-03-2016 09:05:00 6.8 C 6.96 g/m*3 6.8 C 1.6 km/h
111 23-03-2016 09:10:00 6.8 C 6.88 g/m*3 6.8 C 4.8 km/h
112 23-03-2016 09:15:00 6.9 C 6.93 g/m*3 5.79 C 6.4 km/h
113 23-03-2016 09:20:00 6.9 C 6.85 g/m*3 5.79 C 6.4 km/h
114 23-03-2016 09:25:00 7 C 6.9 g/m*3 5.9 C 6.4 km/h
115 23-03-2016 09:30:00 7.1 C 6.86 g/m*3 7.1 C 4.8 km/h
116 23-03-2016 09:35:00 7.2 C 6.91 g/m*3 7.2 C 3.2 km/h
117 23-03-2016 09:40:00 7.2 C 6.83 g/m*3 5.69 C 8.1 km/h
118 23-03-2016 09:45:00 7.3 C 6.79 g/m*3 6.25 C 6.4 km/h
119 23-03-2016 09:50:00 7.4 C 6.84 g/m*3 7.4 C 3.2 km/h
120 23-03-2016 09:55:00 7.4 C 6.76 g/m*3 4.78 C 14.5 km/h
121 23-03-2016 10:00:00 7.5 C 6.72 g/m*3 5.7 C 9.7 km/h
122 23-03-2016 10:05:00 7.6 C 6.77 g/m*3 5.82 C 9.7 km/h
123 23-03-2016 10:10:00 7.7 C 6.73 g/m*3 5.65 C 11.3 km/h
124 23-03-2016 10:15:00 7.7 C 6.65 g/m*3 5.94 C 9.7 km/h
125 23-03-2016 10:20:00 7.8 C 6.77 g/m*3 5.51 C 12.9 km/h
Sensor: Nr:Datum:Temp:Abs-Feuchte:Windchill:Wind:
Aussen-T/F 126 23-03-2016 10:25:00 7.9 C 6.74 g/m*3 5.39 C 14.5 km/h
127 23-03-2016 10:30:00 7.9 C 6.65 g/m*3 6.52 C 8.1 km/h
128 23-03-2016 10:35:00 8.1 C 6.74 g/m*3 6.42 C 9.7 km/h
129 23-03-2016 10:40:00 8.1 C 6.66 g/m*3 6.42 C 9.7 km/h
130 23-03-2016 10:45:00 8.1 C 6.74 g/m*3 6.75 C 8.1 km/h
131 23-03-2016 10:50:00 8.2 C 6.78 g/m*3 6.87 C 8.1 km/h
132 23-03-2016 10:55:00 8.2 C 6.7 g/m*3 6.54 C 9.7 km/h
133 23-03-2016 11:00:00 8.3 C 6.83 g/m*3 7.41 C 6.4 km/h
134 23-03-2016 11:05:00 8.4 C 6.79 g/m*3 7.11 C 8.1 km/h
135 23-03-2016 11:10:00 8.5 C 7 g/m*3 7.22 C 8.1 km/h
136 23-03-2016 11:15:00 8.6 C 7.05 g/m*3 7.34 C 8.1 km/h
137 23-03-2016 11:20:00 8.6 C 6.87 g/m*3 7.01 C 9.7 km/h
138 23-03-2016 11:25:00 8.6 C 6.87 g/m*3 7.75 C 6.4 km/h
139 23-03-2016 11:30:00 8.7 C 6.92 g/m*3 8.7 C 4.8 km/h
140 23-03-2016 11:35:00 8.8 C 6.96 g/m*3 7.98 C 6.4 km/h
141 23-03-2016 11:40:00 8.8 C 6.88 g/m*3 7.58 C 8.1 km/h
142 23-03-2016 11:45:00 9 C 7.05 g/m*3 7.49 C 9.7 km/h
143 23-03-2016 11:50:00 9.1 C 6.92 g/m*3 7.33 C 11.3 km/h
144 23-03-2016 11:55:00 9.1 C 6.92 g/m*3 8.33 C 6.4 km/h
145 23-03-2016 12:00:00 9.1 C 6.83 g/m*3 7.61 C 9.7 km/h
146 23-03-2016 12:05:00 9 C 6.88 g/m*3 6.54 C 16.1 km/h
147 23-03-2016 12:10:00 8.9 C 6.83 g/m*3 7.09 C 11.3 km/h
148 23-03-2016 12:15:00 8.9 C 6.92 g/m*3 7.37 C 9.7 km/h
149 23-03-2016 12:20:00 8.9 C 6.83 g/m*3 7.69 C 8.1 km/h
150 23-03-2016 12:25:00 9 C 6.88 g/m*3 7.81 C 8.1 km/h
Sensor: Nr:Datum:Temp:Abs-Feuchte:Windchill:Wind:
Aussen-T/F 151 23-03-2016 12:30:00 9.1 C 6.74 g/m*3 7.09 C 12.9 km/h
152 23-03-2016 12:35:00 9.2 C 6.79 g/m*3 7.21 C 12.9 km/h
153 23-03-2016 12:40:00 9.3 C 6.65 g/m*3 7.58 C 11.3 km/h
154 23-03-2016 12:45:00 9.4 C 6.78 g/m*3 7.97 C 9.7 km/h
155 23-03-2016 12:50:00 9.4 C 6.6 g/m*3 7.46 C 12.9 km/h
156 23-03-2016 12:55:00 9.3 C 6.47 g/m*3 7.85 C 9.7 km/h
157 23-03-2016 13:00:00 9.3 C 6.56 g/m*3 8.16 C 8.1 km/h
158 23-03-2016 13:05:00 9.3 C 6.74 g/m*3 8.56 C 6.4 km/h
159 23-03-2016 13:10:00 9.3 C 6.74 g/m*3 7.33 C 12.9 km/h
160 23-03-2016 13:15:00 9.3 C 6.83 g/m*3 7.58 C 11.3 km/h
161 23-03-2016 13:20:00 9.3 C 6.83 g/m*3 8.16 C 8.1 km/h
162 23-03-2016 13:25:00 9.2 C 6.7 g/m*3 7.73 C 9.7 km/h
163 23-03-2016 13:30:00 9.2 C 6.7 g/m*3 8.05 C 8.1 km/h
164 23-03-2016 13:35:00 9.3 C 6.65 g/m*3 8.56 C 6.4 km/h
165 23-03-2016 13:40:00 9.4 C 6.6 g/m*3 8.28 C 8.1 km/h
166 23-03-2016 13:45:00 9.6 C 6.6 g/m*3 7.48 C 14.5 km/h
167 23-03-2016 13:50:00 9.7 C 6.64 g/m*3 7.82 C 12.9 km/h
168 23-03-2016 13:55:00 9.8 C 6.68 g/m*3 7.94 C 12.9 km/h
169 23-03-2016 14:00:00 9.8 C 6.59 g/m*3 7.36 C 17.7 km/h
170 23-03-2016 14:05:00 9.9 C 6.63 g/m*3 7.85 C 14.5 km/h
171 23-03-2016 14:10:00 9.8 C 6.59 g/m*3 8.18 C 11.3 km/h
172 23-03-2016 14:15:00 9.8 C 6.59 g/m*3 7.94 C 12.9 km/h
173 23-03-2016 14:20:00 9.7 C 6.64 g/m*3 7.82 C 12.9 km/h
174 23-03-2016 14:25:00 9.6 C 6.6 g/m*3 9.6 C 4.8 km/h
175 23-03-2016 14:30:00 9.6 C 6.6 g/m*3 7.48 C 14.5 km/h
Sensor: Nr:Datum:Temp:Abs-Feuchte:Windchill:Wind:
Aussen-T/F 176 23-03-2016 14:35:00 9.7 C 6.64 g/m*3 7.82 C 12.9 km/h
177 23-03-2016 14:40:00 9.9 C 6.72 g/m*3 8.06 C 12.9 km/h
178 23-03-2016 14:45:00 10.1 C 6.81 g/m*3 9.48 C 6.4 km/h
179 23-03-2016 14:50:00 10.1 C 6.62 g/m*3 8.1 C 14.5 km/h
180 23-03-2016 14:55:00 10 C 6.58 g/m*3 7.61 C 17.7 km/h
181 23-03-2016 15:00:00 9.8 C 6.49 g/m*3 7.73 C 14.5 km/h
182 23-03-2016 15:05:00 9.8 C 6.49 g/m*3 8.45 C 9.7 km/h
183 23-03-2016 15:10:00 9.7 C 6.45 g/m*3 8.06 C 11.3 km/h
184 23-03-2016 15:15:00 9.7 C 6.64 g/m*3 9.02 C 6.4 km/h
185 23-03-2016 15:20:00 9.7 C 6.45 g/m*3 7.82 C 12.9 km/h
186 23-03-2016 15:25:00 9.7 C 6.45 g/m*3 7.61 C 14.5 km/h
187 23-03-2016 15:30:00 9.8 C 6.49 g/m*3 7.94 C 12.9 km/h
188 23-03-2016 15:35:00 9.8 C 6.49 g/m*3 8.18 C 11.3 km/h
189 23-03-2016 15:40:00 9.7 C 6.45 g/m*3 8.06 C 11.3 km/h
190 23-03-2016 15:45:00 9.6 C 6.32 g/m*3 7.29 C 16.1 km/h
191 23-03-2016 15:50:00 9.5 C 6.28 g/m*3 8.09 C 9.7 km/h
192 23-03-2016 15:55:00 9.4 C 6.24 g/m*3 7.97 C 9.7 km/h
193 23-03-2016 16:00:00 9.4 C 6.24 g/m*3 7.7 C 11.3 km/h
194 23-03-2016 16:05:00 9.4 C 6.33 g/m*3 9.4 C 4.8 km/h
195 23-03-2016 16:10:00 9.4 C 6.42 g/m*3 7.97 C 9.7 km/h
196 23-03-2016 16:15:00 9.4 C 6.24 g/m*3 7.7 C 11.3 km/h
197 23-03-2016 16:20:00 9.4 C 6.24 g/m*3 7.46 C 12.9 km/h
198 23-03-2016 16:25:00 9.5 C 6.28 g/m*3 7.58 C 12.9 km/h
199 23-03-2016 16:30:00 9.6 C 6.23 g/m*3 8.21 C 9.7 km/h
200 23-03-2016 16:35:00 9.6 C 6.14 g/m*3 8.21 C 9.7 km/h
Sensor: Nr:Datum:Temp:Abs-Feuchte:Windchill:Wind:
Aussen-T/F 201 23-03-2016 16:40:00 9.6 C 6.05 g/m*3 7.48 C 14.5 km/h
202 23-03-2016 16:45:00 9.6 C 6.05 g/m*3 8.21 C 9.7 km/h
203 23-03-2016 16:50:00 9.6 C 5.95 g/m*3 7.7 C 12.9 km/h
204 23-03-2016 16:55:00 9.6 C 5.95 g/m*3 7.48 C 14.5 km/h
205 23-03-2016 17:00:00 9.6 C 5.95 g/m*3 8.52 C 8.1 km/h
206 23-03-2016 17:05:00 9.6 C 5.95 g/m*3 7.7 C 12.9 km/h
207 23-03-2016 17:10:00 9.6 C 5.95 g/m*3 7.7 C 12.9 km/h
208 23-03-2016 17:15:00 9.6 C 5.95 g/m*3 7.48 C 14.5 km/h
209 23-03-2016 17:20:00 9.6 C 5.95 g/m*3 7.48 C 14.5 km/h
210 23-03-2016 17:25:00 9.6 C 5.95 g/m*3 8.21 C 9.7 km/h
211 23-03-2016 17:30:00 9.6 C 6.14 g/m*3 8.21 C 9.7 km/h
212 23-03-2016 17:35:00 9.4 C 6.06 g/m*3 8.28 C 8.1 km/h
213 23-03-2016 17:40:00 9.4 C 6.15 g/m*3 8.68 C 6.4 km/h
214 23-03-2016 17:45:00 9.3 C 6.11 g/m*3 9.3 C 4.8 km/h
215 23-03-2016 17:50:00 9.3 C 6.11 g/m*3 9.3 C 4.8 km/h
216 23-03-2016 17:55:00 9.2 C 6.07 g/m*3 8.05 C 8.1 km/h
217 23-03-2016 18:00:00 9.1 C 6.12 g/m*3 8.33 C 6.4 km/h
218 23-03-2016 18:05:00 9.1 C 6.21 g/m*3 8.33 C 6.4 km/h
219 23-03-2016 18:10:00 9 C 6.17 g/m*3 9 C 1.6 km/h
220 23-03-2016 18:15:00 8.9 C 6.13 g/m*3 7.37 C 9.7 km/h
221 23-03-2016 18:20:00 8.9 C 6.13 g/m*3 8.1 C 6.4 km/h
222 23-03-2016 18:25:00 8.8 C 6.09 g/m*3 8.8 C 4.8 km/h
223 23-03-2016 18:30:00 8.8 C 6.09 g/m*3 8.8 C 1.6 km/h
224 23-03-2016 18:35:00 8.8 C 6.18 g/m*3 8.8 C 1.6 km/h
225 23-03-2016 18:40:00 8.7 C 6.14 g/m*3 8.7 C 4.8 km/h
Sensor: Nr:Datum:Temp:Abs-Feuchte:Windchill:Wind:
Aussen-T/F 226 23-03-2016 18:45:00 8.7 C 6.14 g/m*3 8.7 C 4.8 km/h
227 23-03-2016 18:50:00 8.7 C 6.23 g/m*3 8.7 C 1.6 km/h
228 23-03-2016 18:55:00 8.6 C 6.19 g/m*3 8.6 C 0 km/h
229 23-03-2016 19:00:00 8.6 C 6.27 g/m*3 8.6 C 1.6 km/h
230 23-03-2016 19:05:00 8.4 C 6.19 g/m*3 8.4 C 1.6 km/h
231 23-03-2016 19:10:00 8.4 C 6.19 g/m*3 8.4 C 3.2 km/h
232 23-03-2016 19:15:00 8.4 C 6.19 g/m*3 8.4 C 3.2 km/h
233 23-03-2016 19:20:00 8.3 C 6.24 g/m*3 8.3 C 1.6 km/h
234 23-03-2016 19:25:00 8.3 C 6.24 g/m*3 8.3 C 0 km/h
235 23-03-2016 19:30:00 8.2 C 6.28 g/m*3 8.2 C 1.6 km/h
236 23-03-2016 19:35:00 8.1 C 6.16 g/m*3 8.1 C 4.8 km/h
237 23-03-2016 19:40:00 8.1 C 6.16 g/m*3 8.1 C 4.8 km/h
238 23-03-2016 19:45:00 8.1 C 6.24 g/m*3 8.1 C 3.2 km/h
239 23-03-2016 19:50:00 8.1 C 6.24 g/m*3 8.1 C 4.8 km/h
240 23-03-2016 19:55:00 8.1 C 6.24 g/m*3 8.1 C 0 km/h
241 23-03-2016 20:00:00 8 C 6.28 g/m*3 8 C 0 km/h
242 23-03-2016 20:05:00 7.9 C 6.32 g/m*3 7.9 C 0 km/h
243 23-03-2016 20:10:00 7.8 C 6.28 g/m*3 7.8 C 1.6 km/h
244 23-03-2016 20:15:00 7.7 C 6.41 g/m*3 7.7 C 0 km/h
245 23-03-2016 20:20:00 7.7 C 6.41 g/m*3 7.7 C 3.2 km/h
246 23-03-2016 20:25:00 7.6 C 6.44 g/m*3 7.6 C 3.2 km/h
247 23-03-2016 20:30:00 7.5 C 6.4 g/m*3 7.5 C 3.2 km/h
248 23-03-2016 20:35:00 7.4 C 6.44 g/m*3 7.4 C 1.6 km/h
249 23-03-2016 20:40:00 7.3 C 6.4 g/m*3 7.3 C 3.2 km/h
250 23-03-2016 20:45:00 7.3 C 6.4 g/m*3 7.3 C 3.2 km/h
Sensor: Nr:Datum:Temp:Abs-Feuchte:Windchill:Wind:
Aussen-T/F 251 23-03-2016 20:50:00 7.3 C 6.4 g/m*3 7.3 C 0 km/h
252 23-03-2016 20:55:00 7.2 C 6.28 g/m*3 7.2 C 0 km/h
253 23-03-2016 21:00:00 7.2 C 6.36 g/m*3 7.2 C 0 km/h
254 23-03-2016 21:05:00 7.1 C 6.24 g/m*3 7.1 C 0 km/h
255 23-03-2016 21:10:00 7.1 C 6.24 g/m*3 7.1 C 3.2 km/h
256 23-03-2016 21:15:00 7.1 C 6.24 g/m*3 7.1 C 0 km/h
257 23-03-2016 21:20:00 7.1 C 6.32 g/m*3 7.1 C 1.6 km/h
258 23-03-2016 21:25:00 7.1 C 6.24 g/m*3 7.1 C 1.6 km/h
259 23-03-2016 21:30:00 7.2 C 6.28 g/m*3 7.2 C 1.6 km/h
260 23-03-2016 21:35:00 7.2 C 6.28 g/m*3 7.2 C 3.2 km/h
261 23-03-2016 21:40:00 7.2 C 6.28 g/m*3 7.2 C 0 km/h
262 23-03-2016 21:45:00 7.3 C 6.32 g/m*3 7.3 C 1.6 km/h
263 23-03-2016 21:50:00 7.3 C 6.4 g/m*3 7.3 C 1.6 km/h
264 23-03-2016 21:55:00 7.3 C 6.4 g/m*3 7.3 C 0 km/h
265 23-03-2016 22:00:00 7.3 C 6.4 g/m*3 7.3 C 0 km/h
266 23-03-2016 22:05:00 7.3 C 6.4 g/m*3 7.3 C 0 km/h
267 23-03-2016 22:10:00 7.3 C 6.4 g/m*3 7.3 C 3.2 km/h
268 23-03-2016 22:15:00 7.3 C 6.4 g/m*3 7.3 C 0 km/h
269 23-03-2016 22:20:00 7.3 C 6.4 g/m*3 7.3 C 0 km/h
270 23-03-2016 22:25:00 7.3 C 6.4 g/m*3 7.3 C 1.6 km/h
271 23-03-2016 22:30:00 7.3 C 6.4 g/m*3 7.3 C 1.6 km/h
272 23-03-2016 22:35:00 7.3 C 6.4 g/m*3 7.3 C 1.6 km/h
273 23-03-2016 22:40:00 7.3 C 6.4 g/m*3 7.3 C 3.2 km/h
274 23-03-2016 22:45:00 7.3 C 6.4 g/m*3 7.3 C 0 km/h
275 23-03-2016 22:50:00 7.3 C 6.4 g/m*3 7.3 C 0 km/h
Sensor: Nr:Datum:Temp:Abs-Feuchte:Windchill:Wind:
Aussen-T/F 276 23-03-2016 22:55:00 7.2 C 6.36 g/m*3 7.2 C 0 km/h
277 23-03-2016 23:00:00 7.2 C 6.44 g/m*3 7.2 C 0 km/h
278 23-03-2016 23:05:00 7.2 C 6.44 g/m*3 7.2 C 0 km/h
279 23-03-2016 23:10:00 7.1 C 6.4 g/m*3 7.1 C 0 km/h
280 23-03-2016 23:15:00 7.1 C 6.4 g/m*3 7.1 C 0 km/h
281 23-03-2016 23:20:00 7.1 C 6.47 g/m*3 7.1 C 0 km/h
282 23-03-2016 23:25:00 7 C 6.43 g/m*3 7 C 0 km/h
283 23-03-2016 23:30:00 6.9 C 6.39 g/m*3 6.9 C 0 km/h
284 23-03-2016 23:35:00 6.9 C 6.39 g/m*3 6.9 C 0 km/h
285 23-03-2016 23:40:00 6.9 C 6.39 g/m*3 6.9 C 0 km/h
286 23-03-2016 23:45:00 6.9 C 6.31 g/m*3 6.9 C 3.2 km/h
287 23-03-2016 23:50:00 6.9 C 6.31 g/m*3 6.9 C 0 km/h
288 23-03-2016 23:55:00 6.9 C 6.31 g/m*3 6.9 C 4.8 km/h

Legende:
   Min
   Max


Maximal/Minimal-Werte vom 14.04.2020 - 16.05.2020

Sensor Min Max Avg
Temp
(Aussen-T/F)
-0.1 °C
15-04-2020  06:55:00
26.2 °C
17-04-2020  18:05:00
11.98 °C

Die Daten stammen von einer Davis Vantage Pro 2 Wetter-Station und werden unter Linux mit der Software wview2wettercgi und aufbereitet. Alle Angaben erfolgen ohne Gewähr für ihre Vollständigkeit oder Richtigkeit.
Kontakt: Rainer Krienke krienke@uni-koblenz.de . Meine Webseiten an der Uni Koblenz oder privat.
Version: $Revision: 0.78 $